sensor_id;sensor_type;location;lat;lon;timestamp;pressure;altitude;pressure_sealevel;temperature;humidity
47716;BME280;33476;50.984;3.538;2022-09-09T00:03:27;100746.91;;;19.25;66.17
47716;BME280;33476;50.984;3.538;2022-09-09T00:06:06;100748.03;;;19.22;66.20
47716;BME280;33476;50.984;3.538;2022-09-09T00:11:40;100746.53;;;19.29;65.63
47716;BME280;33476;50.984;3.538;2022-09-09T00:14:19;100741.09;;;19.31;65.83
47716;BME280;33476;50.984;3.538;2022-09-09T00:16:52;100743.75;;;19.31;65.53
47716;BME280;33476;50.984;3.538;2022-09-09T00:19:24;100733.53;;;19.26;65.70
47716;BME280;33476;50.984;3.538;2022-09-09T00:25:10;100729.75;;;19.19;65.94
47716;BME280;33476;50.984;3.538;2022-09-09T00:30:19;100734.78;;;19.22;65.38
47716;BME280;33476;50.984;3.538;2022-09-09T00:32:49;100730.34;;;19.23;65.12
47716;BME280;33476;50.984;3.538;2022-09-09T00:35:23;100728.34;;;19.15;65.77
47716;BME280;33476;50.984;3.538;2022-09-09T00:37:53;100727.97;;;19.20;65.59
47716;BME280;33476;50.984;3.538;2022-09-09T00:40:27;100722.91;;;19.17;65.72
47716;BME280;33476;50.984;3.538;2022-09-09T00:43:21;100716.63;;;19.18;65.67
47716;BME280;33476;50.984;3.538;2022-09-09T00:45:59;100710.38;;;19.19;65.50
47716;BME280;33476;50.984;3.538;2022-09-09T00:48:45;100708.84;;;19.16;65.66
47716;BME280;33476;50.984;3.538;2022-09-09T00:51:35;100707.28;;;19.14;65.77
47716;BME280;33476;50.984;3.538;2022-09-09T00:59:52;100689.75;;;19.13;66.00
47716;BME280;33476;50.984;3.538;2022-09-09T01:02:39;100692.38;;;19.13;65.66
47716;BME280;33476;50.984;3.538;2022-09-09T01:07:48;100687.09;;;19.13;65.56
47716;BME280;33476;50.984;3.538;2022-09-09T01:10:24;100681.47;;;19.06;65.62
47716;BME280;33476;50.984;3.538;2022-09-09T01:12:52;100680.00;;;19.13;65.51
47716;BME280;33476;50.984;3.538;2022-09-09T01:15:25;100668.25;;;19.06;65.62
47716;BME280;33476;50.984;3.538;2022-09-09T01:18:02;100670.19;;;19.04;65.54
47716;BME280;33476;50.984;3.538;2022-09-09T01:26:12;100663.66;;;19.08;65.21
47716;BME280;33476;50.984;3.538;2022-09-09T01:28:43;100661.00;;;19.08;65.08
47716;BME280;33476;50.984;3.538;2022-09-09T01:31:14;100659.59;;;19.04;65.23
47716;BME280;33476;50.984;3.538;2022-09-09T01:33:40;100655.81;;;18.97;65.43
47716;BME280;33476;50.984;3.538;2022-09-09T01:36:49;100653.84;;;18.99;65.34
47716;BME280;33476;50.984;3.538;2022-09-09T01:38:53;100654.00;;;18.97;65.52
47716;BME280;33476;50.984;3.538;2022-09-09T01:41:19;100654.97;;;18.96;65.64
47716;BME280;33476;50.984;3.538;2022-09-09T01:43:44;100660.13;;;18.98;65.64
47716;BME280;33476;50.984;3.538;2022-09-09T01:46:10;100662.16;;;18.94;65.91
47716;BME280;33476;50.984;3.538;2022-09-09T01:48:37;100657.63;;;18.96;65.85
47716;BME280;33476;50.984;3.538;2022-09-09T01:51:02;100657.34;;;18.99;65.78
47716;BME280;33476;50.984;3.538;2022-09-09T01:53:28;100650.22;;;19.00;65.75
47716;BME280;33476;50.984;3.538;2022-09-09T01:56:11;100657.63;;;18.96;65.84
47716;BME280;33476;50.984;3.538;2022-09-09T02:07:03;100658.25;;;18.89;66.10
47716;BME280;33476;50.984;3.538;2022-09-09T02:09:31;100664.06;;;18.83;66.27
47716;BME280;33476;50.984;3.538;2022-09-09T02:12:04;100657.09;;;18.82;66.59
47716;BME280;33476;50.984;3.538;2022-09-09T02:14:36;100656.84;;;18.85;66.49
47716;BME280;33476;50.984;3.538;2022-09-09T02:17:11;100657.56;;;18.87;66.73
47716;BME280;33476;50.984;3.538;2022-09-09T02:19:45;100661.34;;;18.94;66.46
47716;BME280;33476;50.984;3.538;2022-09-09T02:22:16;100655.66;;;18.98;66.42
47716;BME280;33476;50.984;3.538;2022-09-09T02:24:42;100655.38;;;19.01;66.18
47716;BME280;33476;50.984;3.538;2022-09-09T02:27:08;100656.38;;;19.00;66.36
47716;BME280;33476;50.984;3.538;2022-09-09T02:29:37;100658.44;;;18.97;66.47
47716;BME280;33476;50.984;3.538;2022-09-09T02:32:06;100654.00;;;18.97;66.60
47716;BME280;33476;50.984;3.538;2022-09-09T02:34:37;100657.91;;;19.03;66.54
47716;BME280;33476;50.984;3.538;2022-09-09T02:37:06;100660.53;;;19.03;66.51
47716;BME280;33476;50.984;3.538;2022-09-09T02:39:33;100648.41;;;19.00;66.66
47716;BME280;33476;50.984;3.538;2022-09-09T02:41:58;100657.06;;;19.02;66.73
47716;BME280;33476;50.984;3.538;2022-09-09T02:44:24;100657.84;;;18.93;66.92
47716;BME280;33476;50.984;3.538;2022-09-09T02:50:17;100655.47;;;18.90;67.02
47716;BME280;33476;50.984;3.538;2022-09-09T02:53:11;100658.13;;;18.90;66.93
47716;BME280;33476;50.984;3.538;2022-09-09T02:55:47;100650.19;;;18.90;66.66
47716;BME280;33476;50.984;3.538;2022-09-09T02:58:15;100652.56;;;18.93;66.68
47716;BME280;33476;50.984;3.538;2022-09-09T03:00:49;100653.94;;;18.88;67.05
47716;BME280;33476;50.984;3.538;2022-09-09T03:03:16;100649.22;;;18.91;66.89
47716;BME280;33476;50.984;3.538;2022-09-09T03:05:43;100642.13;;;18.92;67.04
47716;BME280;33476;50.984;3.538;2022-09-09T03:08:10;100652.00;;;18.90;66.79
47716;BME280;33476;50.984;3.538;2022-09-09T03:10:35;100651.03;;;18.91;67.01
47716;BME280;33476;50.984;3.538;2022-09-09T03:13:02;100655.63;;;18.89;66.88
47716;BME280;33476;50.984;3.538;2022-09-09T03:15:33;100652.69;;;18.92;66.86
47716;BME280;33476;50.984;3.538;2022-09-09T03:17:59;100657.16;;;18.91;67.20
47716;BME280;33476;50.984;3.538;2022-09-09T03:20:26;100651.72;;;18.93;66.93
47716;BME280;33476;50.984;3.538;2022-09-09T03:22:52;100647.41;;;18.92;66.98
47716;BME280;33476;50.984;3.538;2022-09-09T03:25:18;100647.28;;;18.93;66.93
47716;BME280;33476;50.984;3.538;2022-09-09T03:27:44;100639.91;;;18.97;66.88
47716;BME280;33476;50.984;3.538;2022-09-09T03:30:09;100633.75;;;18.87;67.09
47716;BME280;33476;50.984;3.538;2022-09-09T03:32:35;100623.84;;;18.89;67.03
47716;BME280;33476;50.984;3.538;2022-09-09T03:35:01;100619.25;;;18.91;66.78
47716;BME280;33476;50.984;3.538;2022-09-09T03:37:26;100614.94;;;18.90;66.97
47716;BME280;33476;50.984;3.538;2022-09-09T03:39:52;100626.22;;;18.92;66.86
47716;BME280;33476;50.984;3.538;2022-09-09T03:42:20;100624.69;;;18.89;67.06
47716;BME280;33476;50.984;3.538;2022-09-09T03:44:46;100622.28;;;18.86;67.12
47716;BME280;33476;50.984;3.538;2022-09-09T03:47:17;100616.72;;;18.79;67.30
47716;BME280;33476;50.984;3.538;2022-09-09T03:49:43;100614.50;;;18.85;66.91
47716;BME280;33476;50.984;3.538;2022-09-09T03:52:09;100617.97;;;18.85;67.21
47716;BME280;33476;50.984;3.538;2022-09-09T03:54:34;100613.53;;;18.86;67.06
47716;BME280;33476;50.984;3.538;2022-09-09T03:57:01;100604.50;;;18.88;67.02
47716;BME280;33476;50.984;3.538;2022-09-09T03:59:26;100604.22;;;18.91;66.99
47716;BME280;33476;50.984;3.538;2022-09-09T04:01:52;100606.72;;;18.93;66.57
47716;BME280;33476;50.984;3.538;2022-09-09T04:04:18;100605.50;;;18.97;66.36
47716;BME280;33476;50.984;3.538;2022-09-09T04:06:45;100602.28;;;18.93;66.61
47716;BME280;33476;50.984;3.538;2022-09-09T04:09:10;100592.53;;;18.94;66.54
47716;BME280;33476;50.984;3.538;2022-09-09T04:11:35;100597.41;;;18.89;66.88
47716;BME280;33476;50.984;3.538;2022-09-09T04:14:02;100593.06;;;18.88;66.84
47716;BME280;33476;50.984;3.538;2022-09-09T04:16:27;100602.41;;;18.92;66.71
47716;BME280;33476;50.984;3.538;2022-09-09T04:18:52;100591.00;;;18.91;66.72
47716;BME280;33476;50.984;3.538;2022-09-09T04:21:18;100598.22;;;18.89;66.77
47716;BME280;33476;50.984;3.538;2022-09-09T04:23:43;100595.00;;;18.86;66.96
47716;BME280;33476;50.984;3.538;2022-09-09T04:26:09;100587.66;;;18.89;66.98
47716;BME280;33476;50.984;3.538;2022-09-09T04:28:36;100591.69;;;18.93;66.71
47716;BME280;33476;50.984;3.538;2022-09-09T04:31:10;100592.09;;;18.89;66.82
47716;BME280;33476;50.984;3.538;2022-09-09T04:33:39;100587.78;;;18.88;67.01
47716;BME280;33476;50.984;3.538;2022-09-09T04:36:05;100586.94;;;18.87;66.78
47716;BME280;33476;50.984;3.538;2022-09-09T04:38:31;100591.78;;;18.82;67.07
47716;BME280;33476;50.984;3.538;2022-09-09T04:40:56;100583.56;;;18.85;66.79
47716;BME280;33476;50.984;3.538;2022-09-09T04:43:22;100576.09;;;18.90;66.84
47716;BME280;33476;50.984;3.538;2022-09-09T04:45:49;100572.19;;;18.94;66.83
47716;BME280;33476;50.984;3.538;2022-09-09T04:48:15;100573.75;;;18.97;66.80
47716;BME280;33476;50.984;3.538;2022-09-09T04:50:40;100570.53;;;18.93;66.64
47716;BME280;33476;50.984;3.538;2022-09-09T04:53:06;100589.69;;;18.86;66.90
47716;BME280;33476;50.984;3.538;2022-09-09T04:55:32;100583.16;;;18.80;67.30
47716;BME280;33476;50.984;3.538;2022-09-09T04:58:06;100587.44;;;18.71;67.69
47716;BME280;33476;50.984;3.538;2022-09-09T05:00:32;100586.19;;;18.75;67.80
47716;BME280;33476;50.984;3.538;2022-09-09T05:03:02;100580.72;;;18.67;68.17
47716;BME280;33476;50.984;3.538;2022-09-09T05:05:28;100572.53;;;18.70;68.31
47716;BME280;33476;50.984;3.538;2022-09-09T05:07:53;100576.75;;;18.83;68.06
47716;BME280;33476;50.984;3.538;2022-09-09T05:10:18;100586.50;;;18.82;67.88
47716;BME280;33476;50.984;3.538;2022-09-09T05:12:52;100564.84;;;18.67;68.73
47716;BME280;33476;50.984;3.538;2022-09-09T05:15:18;100571.09;;;18.66;68.96
47716;BME280;33476;50.984;3.538;2022-09-09T05:17:45;100567.63;;;18.66;69.22
47716;BME280;33476;50.984;3.538;2022-09-09T05:20:11;100560.63;;;18.65;69.42
47716;BME280;33476;50.984;3.538;2022-09-09T05:22:37;100558.72;;;18.67;69.77
47716;BME280;33476;50.984;3.538;2022-09-09T05:25:03;100561.22;;;18.68;69.50
47716;BME280;33476;50.984;3.538;2022-09-09T05:27:28;100557.03;;;18.66;69.57
47716;BME280;33476;50.984;3.538;2022-09-09T05:29:56;100560.63;;;18.65;69.73
47716;BME280;33476;50.984;3.538;2022-09-09T05:32:23;100553.28;;;18.68;69.43
47716;BME280;33476;50.984;3.538;2022-09-09T05:34:49;100557.72;;;18.68;69.67
47716;BME280;33476;50.984;3.538;2022-09-09T05:37:15;100560.25;;;18.69;69.73
47716;BME280;33476;50.984;3.538;2022-09-09T05:39:41;100553.56;;;18.65;69.86
47716;BME280;33476;50.984;3.538;2022-09-09T05:42:07;100559.78;;;18.64;69.61
47716;BME280;33476;50.984;3.538;2022-09-09T05:44:32;100553.66;;;18.64;69.94
47716;BME280;33476;50.984;3.538;2022-09-09T05:46:57;100557.03;;;18.66;69.91
47716;BME280;33476;50.984;3.538;2022-09-09T05:49:23;100559.31;;;18.70;69.87
47716;BME280;33476;50.984;3.538;2022-09-09T05:51:49;100567.34;;;18.69;70.09
47716;BME280;33476;50.984;3.538;2022-09-09T05:54:15;100569.88;;;18.70;70.08
47716;BME280;33476;50.984;3.538;2022-09-09T05:56:41;100569.44;;;18.65;70.47
47716;BME280;33476;50.984;3.538;2022-09-09T05:59:07;100568.56;;;18.65;70.61
47716;BME280;33476;50.984;3.538;2022-09-09T06:01:34;100571.84;;;18.57;70.79
47716;BME280;33476;50.984;3.538;2022-09-09T06:04:00;100570.03;;;18.58;71.08
47716;BME280;33476;50.984;3.538;2022-09-09T06:06:30;100565.88;;;18.55;70.99
47716;BME280;33476;50.984;3.538;2022-09-09T06:08:57;100561.13;;;18.59;71.03
47716;BME280;33476;50.984;3.538;2022-09-09T06:11:30;100564.91;;;18.56;71.08
47716;BME280;33476;50.984;3.538;2022-09-09T06:13:56;100550.25;;;18.52;71.21
47716;BME280;33476;50.984;3.538;2022-09-09T06:16:23;100553.16;;;18.49;71.27
47716;BME280;33476;50.984;3.538;2022-09-09T06:18:49;100548.56;;;18.51;71.07
47716;BME280;33476;50.984;3.538;2022-09-09T06:23:42;100551.53;;;18.58;71.14
47716;BME280;33476;50.984;3.538;2022-09-09T06:26:11;100552.22;;;18.60;71.23
47716;BME280;33476;50.984;3.538;2022-09-09T06:28:37;100551.16;;;18.62;70.93
47716;BME280;33476;50.984;3.538;2022-09-09T06:31:05;100546.56;;;18.64;70.77
47716;BME280;33476;50.984;3.538;2022-09-09T06:33:33;100543.91;;;18.64;71.03
47716;BME280;33476;50.984;3.538;2022-09-09T06:36:00;100547.41;;;18.65;70.76
47716;BME280;33476;50.984;3.538;2022-09-09T06:38:26;100531.53;;;18.65;70.70
47716;BME280;33476;50.984;3.538;2022-09-09T06:40:58;100549.94;;;18.66;70.57
47716;BME280;33476;50.984;3.538;2022-09-09T06:43:25;100534.94;;;18.76;70.35
47716;BME280;33476;50.984;3.538;2022-09-09T06:45:59;100523.66;;;18.74;70.23
47716;BME280;33476;50.984;3.538;2022-09-09T06:48:25;100525.19;;;18.77;70.27
47716;BME280;33476;50.984;3.538;2022-09-09T06:51:08;100525.63;;;18.82;70.39
47716;BME280;33476;50.984;3.538;2022-09-09T06:53:35;100521.03;;;18.84;70.19
47716;BME280;33476;50.984;3.538;2022-09-09T06:58:42;100523.97;;;18.81;70.50
47716;BME280;33476;50.984;3.538;2022-09-09T07:01:11;100524.38;;;18.86;70.38
47716;BME280;33476;50.984;3.538;2022-09-09T07:03:38;100522.59;;;18.87;70.38
47716;BME280;33476;50.984;3.538;2022-09-09T07:06:04;100523.00;;;18.82;70.57
47716;BME280;33476;50.984;3.538;2022-09-09T07:08:29;100515.44;;;18.77;70.75
47716;BME280;33476;50.984;3.538;2022-09-09T07:11:05;100524.63;;;18.73;71.05
47716;BME280;33476;50.984;3.538;2022-09-09T07:13:31;100514.91;;;18.84;70.87
47716;BME280;33476;50.984;3.538;2022-09-09T07:16:07;100507.56;;;18.87;70.88
47716;BME280;33476;50.984;3.538;2022-09-09T07:18:33;100513.03;;;18.95;70.77
47716;BME280;33476;50.984;3.538;2022-09-09T07:21:00;100506.03;;;18.94;70.77
47716;BME280;33476;50.984;3.538;2022-09-09T07:23:25;100505.47;;;18.91;70.80
47716;BME280;33476;50.984;3.538;2022-09-09T07:25:51;100511.47;;;18.93;71.26
47716;BME280;33476;50.984;3.538;2022-09-09T07:28:18;100513.13;;;18.94;70.79
47716;BME280;33476;50.984;3.538;2022-09-09T07:30:43;100519.00;;;18.97;71.02
47716;BME280;33476;50.984;3.538;2022-09-09T07:33:09;100511.31;;;18.94;70.75
47716;BME280;33476;50.984;3.538;2022-09-09T07:35:35;100519.72;;;18.99;70.80
47716;BME280;33476;50.984;3.538;2022-09-09T07:38:03;100509.78;;;18.92;71.17
47716;BME280;33476;50.984;3.538;2022-09-09T07:40:33;100520.06;;;18.85;71.18
47716;BME280;33476;50.984;3.538;2022-09-09T07:42:59;100522.84;;;18.84;71.29
47716;BME280;33476;50.984;3.538;2022-09-09T07:45:24;100514.53;;;18.88;71.48
47716;BME280;33476;50.984;3.538;2022-09-09T07:47:50;100517.03;;;18.90;71.23
47716;BME280;33476;50.984;3.538;2022-09-09T07:50:15;100529.69;;;18.86;71.17
47716;BME280;33476;50.984;3.538;2022-09-09T07:52:40;100536.91;;;18.84;71.67
47716;BME280;33476;50.984;3.538;2022-09-09T07:55:06;100538.03;;;18.82;71.40
47716;BME280;33476;50.984;3.538;2022-09-09T07:57:31;100523.28;;;18.79;71.46
47716;BME280;33476;50.984;3.538;2022-09-09T07:59:57;100520.31;;;18.72;71.87
47716;BME280;33476;50.984;3.538;2022-09-09T08:02:23;100541.78;;;18.79;71.75
47716;BME280;33476;50.984;3.538;2022-09-09T08:04:50;100541.06;;;18.77;71.67
47716;BME280;33476;50.984;3.538;2022-09-09T08:07:16;100532.72;;;18.72;71.70
47716;BME280;33476;50.984;3.538;2022-09-09T08:09:42;100550.63;;;18.68;71.89
47716;BME280;33476;50.984;3.538;2022-09-09T08:12:09;100556.91;;;18.67;71.90
47716;BME280;33476;50.984;3.538;2022-09-09T08:14:35;100542.50;;;18.60;72.03
47716;BME280;33476;50.984;3.538;2022-09-09T08:17:01;100543.31;;;18.61;72.16
47716;BME280;33476;50.984;3.538;2022-09-09T08:19:26;100549.59;;;18.60;72.06
47716;BME280;33476;50.984;3.538;2022-09-09T08:21:54;100565.31;;;18.61;72.13
47716;BME280;33476;50.984;3.538;2022-09-09T08:24:19;100556.75;;;18.69;72.13
47716;BME280;33476;50.984;3.538;2022-09-09T08:26:47;100565.44;;;18.71;72.02
47716;BME280;33476;50.984;3.538;2022-09-09T08:29:14;100565.53;;;18.69;72.16
47716;BME280;33476;50.984;3.538;2022-09-09T08:31:57;100560.03;;;18.61;72.60
47716;BME280;33476;50.984;3.538;2022-09-09T08:34:24;100567.25;;;18.70;71.93
47716;BME280;33476;50.984;3.538;2022-09-09T08:36:52;100573.22;;;18.72;71.74
47716;BME280;33476;50.984;3.538;2022-09-09T08:39:19;100580.88;;;18.75;71.72
47716;BME280;33476;50.984;3.538;2022-09-09T08:52:01;100581.72;;;18.76;72.25
47716;BME280;33476;50.984;3.538;2022-09-09T08:54:31;100588.25;;;18.72;72.14
47716;BME280;33476;50.984;3.538;2022-09-09T08:56:58;100577.69;;;18.72;72.30
47716;BME280;33476;50.984;3.538;2022-09-09T08:59:23;100580.88;;;18.75;72.22
47716;BME280;33476;50.984;3.538;2022-09-09T09:02:23;100591.34;;;18.77;72.48
47716;BME280;33476;50.984;3.538;2022-09-09T09:04:52;100589.69;;;18.86;72.02
47716;BME280;33476;50.984;3.538;2022-09-09T09:10:46;100599.50;;;18.95;71.85
47716;BME280;33476;50.984;3.538;2022-09-09T09:13:15;100598.72;;;19.04;71.36
47716;BME280;33476;50.984;3.538;2022-09-09T09:15:44;100588.41;;;19.11;71.34
47716;BME280;33476;50.984;3.538;2022-09-09T09:18:13;100593.47;;;19.14;71.63
47716;BME280;33476;50.984;3.538;2022-09-09T09:21:02;100616.03;;;19.18;71.68
47716;BME280;33476;50.984;3.538;2022-09-09T09:23:38;100599.63;;;19.24;71.44
47716;BME280;33476;50.984;3.538;2022-09-09T09:26:07;100606.19;;;19.29;71.34
47716;BME280;33476;50.984;3.538;2022-09-09T09:28:36;100603.41;;;19.31;71.23
47716;BME280;33476;50.984;3.538;2022-09-09T09:31:11;100617.75;;;19.28;71.30
47716;BME280;33476;50.984;3.538;2022-09-09T09:36:09;100619.44;;;19.29;71.01
47716;BME280;33476;50.984;3.538;2022-09-09T09:38:36;100623.63;;;19.32;71.07
47716;BME280;33476;50.984;3.538;2022-09-09T09:41:02;100621.66;;;19.34;70.95
47716;BME280;33476;50.984;3.538;2022-09-09T09:43:35;100629.06;;;19.30;71.32
47716;BME280;33476;50.984;3.538;2022-09-09T09:46:03;100632.13;;;19.35;71.30
47716;BME280;33476;50.984;3.538;2022-09-09T09:48:29;100625.31;;;19.43;71.02
47716;BME280;33476;50.984;3.538;2022-09-09T09:51:08;100623.50;;;19.43;71.12
47716;BME280;33476;50.984;3.538;2022-09-09T09:53:36;100630.63;;;19.52;70.58
47716;BME280;33476;50.984;3.538;2022-09-09T09:56:06;100626.31;;;19.51;70.49
47716;BME280;33476;50.984;3.538;2022-09-09T10:01:22;100629.25;;;19.48;70.35
47716;BME280;33476;50.984;3.538;2022-09-09T10:06:51;100642.25;;;19.61;70.05
47716;BME280;33476;50.984;3.538;2022-09-09T10:09:30;100637.75;;;19.52;70.45
47716;BME280;33476;50.984;3.538;2022-09-09T10:12:15;100627.88;;;19.54;70.41
47716;BME280;33476;50.984;3.538;2022-09-09T10:15:15;100644.47;;;19.56;70.32
47716;BME280;33476;50.984;3.538;2022-09-09T10:21:08;100648.47;;;19.50;69.87
47716;BME280;33476;50.984;3.538;2022-09-09T10:35:31;100663.06;;;19.75;68.97
47716;BME280;33476;50.984;3.538;2022-09-09T10:38:24;100666.16;;;19.80;68.80
47716;BME280;33476;50.984;3.538;2022-09-09T10:46:35;100667.84;;;19.81;68.54
47716;BME280;33476;50.984;3.538;2022-09-09T10:49:13;100674.13;;;19.90;68.24
47716;BME280;33476;50.984;3.538;2022-09-09T10:56:55;100674.56;;;20.05;67.65
47716;BME280;33476;50.984;3.538;2022-09-09T10:59:38;100682.25;;;20.17;67.69
47716;BME280;33476;50.984;3.538;2022-09-09T11:04:48;100673.03;;;20.41;66.59
47716;BME280;33476;50.984;3.538;2022-09-09T11:07:25;100677.81;;;20.47;66.70
47716;BME280;33476;50.984;3.538;2022-09-09T11:09:58;100676.69;;;20.50;66.28
47716;BME280;33476;50.984;3.538;2022-09-09T11:12:27;100673.63;;;20.54;66.09
47716;BME280;33476;50.984;3.538;2022-09-09T11:15:01;100679.06;;;20.62;66.69
47716;BME280;33476;50.984;3.538;2022-09-09T11:18:01;100670.50;;;20.68;66.36
47716;BME280;33476;50.984;3.538;2022-09-09T11:20:29;100682.66;;;20.81;66.23
47716;BME280;33476;50.984;3.538;2022-09-09T11:23:05;100674.94;;;20.97;65.62
47716;BME280;33476;50.984;3.538;2022-09-09T11:25:55;100666.38;;;21.13;64.63
47716;BME280;33476;50.984;3.538;2022-09-09T11:42:18;100683.56;;;21.09;63.52
47716;BME280;33476;50.984;3.538;2022-09-09T11:44:44;100691.22;;;21.21;63.86
47716;BME280;33476;50.984;3.538;2022-09-09T11:49:46;100688.25;;;21.44;62.68
47716;BME280;33476;50.984;3.538;2022-09-09T11:52:44;100691.28;;;21.49;62.47
47716;BME280;33476;50.984;3.538;2022-09-09T11:58:17;100703.69;;;21.85;62.14
47716;BME280;33476;50.984;3.538;2022-09-09T12:00:48;100704.31;;;21.97;61.08
47716;BME280;33476;50.984;3.538;2022-09-09T12:03:41;100702.84;;;21.85;61.59
47716;BME280;33476;50.984;3.538;2022-09-09T12:06:32;100708.78;;;21.97;61.86
47716;BME280;33476;50.984;3.538;2022-09-09T12:19:40;100719.03;;;21.92;60.93
47716;BME280;33476;50.984;3.538;2022-09-09T12:22:17;100726.53;;;21.78;61.08
47716;BME280;33476;50.984;3.538;2022-09-09T12:24:55;100715.91;;;21.78;61.08
47716;BME280;33476;50.984;3.538;2022-09-09T12:27:35;100712.00;;;21.73;61.41
47716;BME280;33476;50.984;3.538;2022-09-09T12:30:11;100708.19;;;21.75;61.78
47716;BME280;33476;50.984;3.538;2022-09-09T12:32:39;100710.03;;;21.75;62.85
47716;BME280;33476;50.984;3.538;2022-09-09T12:35:18;100713.88;;;21.63;63.58
47716;BME280;33476;50.984;3.538;2022-09-09T12:37:52;100713.47;;;21.57;64.47
47716;BME280;33476;50.984;3.538;2022-09-09T12:40:25;100717.13;;;21.56;64.39
47716;BME280;33476;50.984;3.538;2022-09-09T12:42:51;100710.44;;;21.52;64.68
47716;BME280;33476;50.984;3.538;2022-09-09T12:45:22;100717.16;;;21.47;64.55
47716;BME280;33476;50.984;3.538;2022-09-09T12:48:04;100719.41;;;21.42;65.54
47716;BME280;33476;50.984;3.538;2022-09-09T12:50:42;100723.84;;;21.51;65.65
47716;BME280;33476;50.984;3.538;2022-09-09T12:53:30;100720.91;;;21.54;65.15
47716;BME280;33476;50.984;3.538;2022-09-09T12:56:02;100722.84;;;21.62;64.72
47716;BME280;33476;50.984;3.538;2022-09-09T12:58:29;100718.72;;;21.67;65.19
47716;BME280;33476;50.984;3.538;2022-09-09T13:01:00;100722.09;;;21.69;64.44
47716;BME280;33476;50.984;3.538;2022-09-09T13:03:28;100716.78;;;21.69;63.37
47716;BME280;33476;50.984;3.538;2022-09-09T13:05:58;100717.91;;;21.67;62.82
47716;BME280;33476;50.984;3.538;2022-09-09T13:08:25;100717.78;;;21.68;62.85
47716;BME280;33476;50.984;3.538;2022-09-09T13:10:58;100709.03;;;21.76;62.71
47716;BME280;33476;50.984;3.538;2022-09-09T13:13:33;100711.09;;;21.82;62.44
47716;BME280;33476;50.984;3.538;2022-09-09T13:16:01;100719.81;;;22.02;61.93
47716;BME280;33476;50.984;3.538;2022-09-09T13:18:28;100722.59;;;22.10;61.32
47716;BME280;33476;50.984;3.538;2022-09-09T13:20:55;100714.03;;;22.06;60.85
47716;BME280;33476;50.984;3.538;2022-09-09T13:23:35;100715.34;;;22.02;60.96
47716;BME280;33476;50.984;3.538;2022-09-09T13:26:04;100714.75;;;22.08;60.87
47716;BME280;33476;50.984;3.538;2022-09-09T13:28:31;100715.31;;;22.12;60.45
47716;BME280;33476;50.984;3.538;2022-09-09T13:33:34;100716.75;;;21.97;60.41
47716;BME280;33476;50.984;3.538;2022-09-09T13:36:09;100729.13;;;21.88;61.01
47716;BME280;33476;50.984;3.538;2022-09-09T13:38:38;100740.94;;;21.76;62.82
47716;BME280;33476;50.984;3.538;2022-09-09T13:41:05;100735.41;;;21.69;64.18
47716;BME280;33476;50.984;3.538;2022-09-09T13:43:45;100739.03;;;21.68;64.62
47716;BME280;33476;50.984;3.538;2022-09-09T13:46:34;100729.00;;;21.62;64.82
47716;BME280;33476;50.984;3.538;2022-09-09T13:51:34;100727.31;;;21.61;65.23
47716;BME280;33476;50.984;3.538;2022-09-09T13:54:00;100732.47;;;21.63;65.13
47716;BME280;33476;50.984;3.538;2022-09-09T13:56:26;100744.78;;;21.64;65.28
47716;BME280;33476;50.984;3.538;2022-09-09T13:58:51;100731.81;;;21.61;64.59
47716;BME280;33476;50.984;3.538;2022-09-09T14:01:17;100734.72;;;21.57;64.72
47716;BME280;33476;50.984;3.538;2022-09-09T14:03:42;100730.56;;;21.55;64.34
47716;BME280;33476;50.984;3.538;2022-09-09T14:06:09;100745.66;;;21.54;64.05
47716;BME280;33476;50.984;3.538;2022-09-09T14:08:35;100749.16;;;21.55;64.25
47716;BME280;33476;50.984;3.538;2022-09-09T14:11:03;100742.44;;;21.61;64.18
47716;BME280;33476;50.984;3.538;2022-09-09T14:13:28;100748.81;;;21.68;64.88
47716;BME280;33476;50.984;3.538;2022-09-09T14:15:54;100739.41;;;21.73;65.31
47716;BME280;33476;50.984;3.538;2022-09-09T14:18:19;100739.00;;;21.78;65.39
47716;BME280;33476;50.984;3.538;2022-09-09T14:20:47;100740.91;;;21.85;65.22
47716;BME280;33476;50.984;3.538;2022-09-09T14:23:13;100736.66;;;21.93;64.93
47716;BME280;33476;50.984;3.538;2022-09-09T14:25:42;100739.31;;;21.93;64.88
47716;BME280;33476;50.984;3.538;2022-09-09T14:28:12;100745.84;;;21.98;64.00
47716;BME280;33476;50.984;3.538;2022-09-09T14:30:42;100733.41;;;21.99;62.96
47716;BME280;33476;50.984;3.538;2022-09-09T14:33:10;100726.25;;;21.99;62.38
47716;BME280;33476;50.984;3.538;2022-09-09T14:35:36;100737.13;;;22.06;62.31
47716;BME280;33476;50.984;3.538;2022-09-09T14:38:03;100726.94;;;22.11;62.14
47716;BME280;33476;50.984;3.538;2022-09-09T14:40:28;100724.94;;;22.13;61.75
47716;BME280;33476;50.984;3.538;2022-09-09T14:42:53;100733.16;;;22.20;61.12
47716;BME280;33476;50.984;3.538;2022-09-09T14:45:19;100727.09;;;22.27;60.52
47716;BME280;33476;50.984;3.538;2022-09-09T14:47:46;100733.63;;;22.33;59.80
47716;BME280;33476;50.984;3.538;2022-09-09T14:50:11;100737.66;;;22.37;59.45
47716;BME280;33476;50.984;3.538;2022-09-09T14:52:37;100740.31;;;22.37;58.76
47716;BME280;33476;50.984;3.538;2022-09-09T14:55:03;100741.47;;;22.34;57.83
47716;BME280;33476;50.984;3.538;2022-09-09T14:57:29;100744.13;;;22.34;58.06
47716;BME280;33476;50.984;3.538;2022-09-09T14:59:54;100746.72;;;22.44;57.80
47716;BME280;33476;50.984;3.538;2022-09-09T15:02:19;100740.63;;;22.52;57.96
47716;BME280;33476;50.984;3.538;2022-09-09T15:04:45;100747.53;;;22.62;57.72
47716;BME280;33476;50.984;3.538;2022-09-09T15:07:11;100751.72;;;22.65;56.67
47716;BME280;33476;50.984;3.538;2022-09-09T15:09:36;100751.56;;;22.66;56.93
47716;BME280;33476;50.984;3.538;2022-09-09T15:12:02;100753.53;;;22.64;56.92